This is the latest recevied weather packets stored in our database for station/object EA2AFZ-W. If no packets are shown the sender has not sent any weather packets the latest 1 day(s).
| Time | Temp. | Humidity | Pressure | Rain* | Wind** | Luminosity | Snow |
|---|---|---|---|---|---|---|---|
| 1778067927 | 14.44° C | 61% | 1015 hPa | 0 mm | - | - | - |
| 1778066125 | 14.44° C | 59% | 1014 hPa | 0 mm | - | - | - |
| 1778064322 | 14.44° C | 59% | 1014 hPa | 0 mm | - | - | - |
| 1778062520 | 14.44° C | 59% | 1014 hPa | 0 mm | - | - | - |
| 1778058916 | 14.44° C | 59% | 1014 hPa | 0 mm | - | - | - |
| 1778053512 | 11.67° C | 77% | 1014 hPa | 0 mm | - | - | - |
| 1778048165 | 10° C | 80% | 1014 hPa | 0 mm | - | - | - |
| 1778044560 | 10° C | 80% | 1013 hPa | 0 mm | - | - | - |
| 1778039154 | 11.11° C | 91% | 1014 hPa | 0 mm | - | - | - |
| 1778037352 | 11.11° C | 94% | 1013 hPa | 0 mm | - | - | - |
| 1778035549 | 11.11° C | 95% | 1014 hPa | 0 mm | - | - | - |
| 1778033748 | 11.11° C | 92% | 1014 hPa | 0 mm | - | - | - |
| 1778031946 | 10.56° C | 94% | 1014 hPa | 0 mm | - | - | - |
| 1778030144 | 11.11° C | 97% | 1014 hPa | 0 mm | - | - | - |
| 1778028341 | 11.11° C | 96% | 1014 hPa | 0 mm | - | - | - |
| 1778015726 | 12.22° C | 92% | 1015 hPa | 0 mm | - | - | - |
| 1778012121 | 12.78° C | 85% | 1014 hPa | 0 mm | - | - | - |
| 1778008518 | 12.78° C | 73% | 1014 hPa | 0 mm | - | - | - |
| 1778006715 | 13.89° C | 67% | 1014 hPa | 0 mm | - | - | - |
| 1777999506 | 13.33° C | 67% | 1014 hPa | 0 mm | - | - | - |
| 1777997764 | 13.89° C | 71% | 1014 hPa | 0 mm | - | - | - |
* Rain latest hour (hover to see other rain measurements)
** Current wind speed in m/s (hover to see current wind gust speed)